createdAt,value
2022-08-28T00:01:33.126Z,23.20
2022-08-28T00:06:35.591Z,22.02
2022-08-28T00:11:38.686Z,22.23
2022-08-28T00:16:42.261Z,22.42
2022-08-28T00:21:45.624Z,21.67
2022-08-28T00:27:06.553Z,22.45
2022-08-28T00:32:09.050Z,22.83
2022-08-28T00:37:11.600Z,22.65
2022-08-28T00:42:14.748Z,23.10
2022-08-28T00:47:17.240Z,22.92
2022-08-28T00:52:20.934Z,23.45
2022-08-28T00:57:28.353Z,22.02
2022-08-28T01:02:31.961Z,24.70
2022-08-28T01:07:34.592Z,23.08
2022-08-28T01:12:37.941Z,23.48
2022-08-28T01:17:49.333Z,24.08
2022-08-28T01:23:17.438Z,22.88
2022-08-28T01:28:20.192Z,22.77
2022-08-28T01:33:28.006Z,23.23
2022-08-28T01:38:30.823Z,21.15
2022-08-28T01:43:33.269Z,22.33
2022-08-28T01:48:41.730Z,23.33
2022-08-28T01:53:46.447Z,22.73
2022-08-28T01:58:49.260Z,22.40
2022-08-28T02:03:53.311Z,22.73
2022-08-28T02:08:55.848Z,20.83
2022-08-28T02:13:59.197Z,22.80
2022-08-28T02:19:02.330Z,22.33
2022-08-28T02:24:05.067Z,23.08
2022-08-28T02:29:07.528Z,23.95
2022-08-28T02:34:11.561Z,22.92
2022-08-28T02:39:14.089Z,24.58
2022-08-28T02:44:17.423Z,23.60
2022-08-28T02:49:19.970Z,24.20
2022-08-28T02:54:22.851Z,24.85
2022-08-28T02:59:25.739Z,23.80
2022-08-28T03:04:28.598Z,25.00
2022-08-28T03:09:31.026Z,23.88
2022-08-28T03:14:33.494Z,25.05
2022-08-28T03:19:36.002Z,25.52
2022-08-28T03:24:38.717Z,19.70
2022-08-28T03:29:41.172Z,19.38
2022-08-28T03:34:43.614Z,21.48
2022-08-28T03:39:46.173Z,20.08
2022-08-28T03:44:50.183Z,20.80
2022-08-28T03:49:56.887Z,21.23
2022-08-28T03:54:59.352Z,21.13
2022-08-28T04:00:03.181Z,21.15
2022-08-28T04:05:14.333Z,23.10
2022-08-28T04:10:16.871Z,23.08
2022-08-28T04:15:21.362Z,23.90
2022-08-28T04:20:24.152Z,25.75
2022-08-28T04:25:27.110Z,27.80
2022-08-28T04:30:29.620Z,26.92
2022-08-28T04:35:32.130Z,27.17
2022-08-28T04:40:34.852Z,26.75
2022-08-28T04:45:41.572Z,27.90
2022-08-28T04:50:46.756Z,28.88
2022-08-28T04:55:54.889Z,28.52
2022-08-28T05:00:58.134Z,29.25
2022-08-28T05:06:00.915Z,31.52
2022-08-28T05:11:30.751Z,29.02
2022-08-28T05:16:45.712Z,27.90
2022-08-28T05:21:48.658Z,29.85
2022-08-28T05:26:51.186Z,30.70
2022-08-28T05:31:54.100Z,31.67
2022-08-28T05:36:56.662Z,30.10
2022-08-28T05:41:59.136Z,29.10
2022-08-28T05:47:02.403Z,30.67
2022-08-28T05:52:04.852Z,28.73
2022-08-28T05:57:07.270Z,30.08
2022-08-28T06:02:09.887Z,32.10
2022-08-28T06:07:13.756Z,22.38
2022-08-28T06:12:16.683Z,26.23
2022-08-28T06:17:20.041Z,28.77
2022-08-28T06:22:26.313Z,21.13
2022-08-28T06:27:28.961Z,29.48
2022-08-28T06:32:32.015Z,27.67
2022-08-28T06:37:34.678Z,26.95
2022-08-28T06:42:37.164Z,27.52
2022-08-28T06:47:39.559Z,19.95
2022-08-28T06:52:41.964Z,25.88
2022-08-28T06:57:44.422Z,27.45
2022-08-28T07:02:47.088Z,27.23
2022-08-28T07:07:49.582Z,18.73
2022-08-28T07:12:52.177Z,23.95
2022-08-28T07:17:54.579Z,25.10
2022-08-28T07:22:59.710Z,25.95
2022-08-28T07:28:02.316Z,23.98
2022-08-28T07:33:04.763Z,24.38
2022-08-28T07:38:07.219Z,23.75
2022-08-28T07:43:28.309Z,25.45
2022-08-28T07:48:30.817Z,24.55
2022-08-28T07:53:36.651Z,24.42
2022-08-28T07:58:39.563Z,22.52
2022-08-28T08:03:42.073Z,23.60
2022-08-28T08:08:46.025Z,20.38
2022-08-28T08:13:50.985Z,20.05
2022-08-28T08:18:53.773Z,21.35
2022-08-28T08:23:56.394Z,20.17
2022-08-28T08:28:59.696Z,19.15
2022-08-28T08:34:03.746Z,18.10
2022-08-28T08:39:09.729Z,18.63
2022-08-28T08:44:17.955Z,18.70
2022-08-28T08:49:25.898Z,17.00
2022-08-28T08:54:28.979Z,17.48
2022-08-28T08:59:35.110Z,17.40
2022-08-28T09:04:46.438Z,17.70
2022-08-28T09:09:52.491Z,18.17
2022-08-28T09:15:10.328Z,17.95
2022-08-28T09:20:17.228Z,16.08
2022-08-28T09:25:44.631Z,15.38
2022-08-28T09:30:55.186Z,15.93
2022-08-28T09:35:57.949Z,16.58
2022-08-28T09:41:29.560Z,15.23
2022-08-28T09:46:32.878Z,15.85
2022-08-28T09:51:38.726Z,15.82
2022-08-28T09:56:42.747Z,15.90
2022-08-28T10:02:00.546Z,16.30
2022-08-28T10:07:12.419Z,16.83
2022-08-28T10:12:26.943Z,15.73
2022-08-28T10:17:29.344Z,17.02
2022-08-28T10:22:49.494Z,17.20
2022-08-28T10:28:13.765Z,17.10
2022-08-28T10:33:42.765Z,16.08
2022-08-28T10:38:53.233Z,16.42
2022-08-28T10:44:01.882Z,16.70
2022-08-28T10:49:10.760Z,16.23
2022-08-28T10:54:23.063Z,17.60
2022-08-28T10:59:29.720Z,17.60
2022-08-28T11:04:32.495Z,16.80
2022-08-28T11:09:39.802Z,16.48
2022-08-28T11:14:48.197Z,16.83
2022-08-28T11:20:07.425Z,17.23
2022-08-28T11:25:18.459Z,16.38
2022-08-28T11:30:33.395Z,17.15
2022-08-28T11:35:40.853Z,17.40
2022-08-28T11:40:52.892Z,15.73
2022-08-28T11:46:00.261Z,17.40
2022-08-28T11:51:22.198Z,16.58
2022-08-28T11:56:43.160Z,17.00
2022-08-28T12:01:45.814Z,17.40
2022-08-28T12:06:52.918Z,15.38
2022-08-28T12:12:46.129Z,16.92
2022-08-28T12:17:51.190Z,16.13
2022-08-28T12:22:56.441Z,16.77
2022-08-28T12:28:14.858Z,14.95
2022-08-28T12:33:22.205Z,16.70
2022-08-28T12:38:25.872Z,16.77
2022-08-28T12:43:35.958Z,15.77
2022-08-28T12:48:54.597Z,17.33
2022-08-28T12:54:00.098Z,14.27
2022-08-28T12:59:27.299Z,13.98
2022-08-28T13:04:37.592Z,15.23
2022-08-28T13:09:49.738Z,14.20
2022-08-28T13:14:52.595Z,11.68
2022-08-28T13:20:29.454Z,11.18
2022-08-28T13:25:35.514Z,10.38
2022-08-28T13:30:38.211Z,9.93
2022-08-28T13:35:42.064Z,9.40
2022-08-28T13:40:58.790Z,13.48
2022-08-28T13:46:02.809Z,15.85
2022-08-28T14:07:34.628Z,9.65
2022-08-28T14:12:37.122Z,10.32
2022-08-28T14:17:39.839Z,10.98
2022-08-28T14:22:42.961Z,10.40
2022-08-28T14:27:45.667Z,9.82
2022-08-28T14:32:48.252Z,9.63
2022-08-28T14:37:50.734Z,9.57
2022-08-28T14:42:53.199Z,9.90
2022-08-28T14:47:55.853Z,7.72
2022-08-28T14:52:58.297Z,6.72
2022-08-28T14:58:00.737Z,8.32
2022-08-28T15:03:03.437Z,8.07
2022-08-28T15:08:14.362Z,5.63
2022-08-28T15:13:16.962Z,5.75
2022-08-28T15:18:19.412Z,7.38
2022-08-28T15:23:22.426Z,8.52
2022-08-28T15:28:25.099Z,6.93
2022-08-28T15:33:27.617Z,6.30
2022-08-28T15:38:50.074Z,6.10
2022-08-28T15:44:01.729Z,5.90
2022-08-28T15:49:07.776Z,6.10
2022-08-28T15:54:11.782Z,6.18
2022-08-28T15:59:15.070Z,5.53
2022-08-28T16:04:18.177Z,6.38
2022-08-28T16:09:23.567Z,6.00
2022-08-28T16:14:26.178Z,5.90
2022-08-28T16:19:28.627Z,6.50
2022-08-28T16:24:31.152Z,5.88
2022-08-28T16:29:33.707Z,6.30
2022-08-28T16:34:36.899Z,6.72
2022-08-28T16:39:39.658Z,6.32
2022-08-28T16:44:42.093Z,6.68
2022-08-28T16:49:44.714Z,6.00
2022-08-28T16:54:48.680Z,7.38
2022-08-28T16:59:53.543Z,6.53
2022-08-28T17:05:00.635Z,6.30
2022-08-28T17:10:04.814Z,5.55
2022-08-28T17:15:08.809Z,5.63
2022-08-28T17:20:34.283Z,5.65
2022-08-28T17:25:36.809Z,5.93
2022-08-28T17:30:39.544Z,5.00
2022-08-28T17:35:42.438Z,5.30
2022-08-28T17:40:44.931Z,4.25
2022-08-28T17:45:47.654Z,3.20
2022-08-28T17:50:50.682Z,4.30
2022-08-28T17:55:53.143Z,5.05
2022-08-28T18:00:55.618Z,3.53
2022-08-28T18:05:59.247Z,3.75
2022-08-28T18:11:01.825Z,3.40
2022-08-28T18:16:04.689Z,3.47
2022-08-28T18:21:08.808Z,3.35
2022-08-28T18:26:12.289Z,3.40
2022-08-28T18:31:14.831Z,3.10
2022-08-28T18:36:17.841Z,3.00
2022-08-28T18:41:21.297Z,3.03
2022-08-28T18:46:28.624Z,2.65
2022-08-28T18:51:32.773Z,2.70
2022-08-28T18:56:36.205Z,3.50
2022-08-28T19:01:41.891Z,2.92
2022-08-28T19:06:44.605Z,3.28
2022-08-28T19:11:49.094Z,3.28
2022-08-28T19:16:51.957Z,3.53
2022-08-28T19:37:28.108Z,4.68
2022-08-28T19:42:30.695Z,4.47
2022-08-28T19:47:35.718Z,3.92
2022-08-28T19:52:39.191Z,3.40
2022-08-28T19:57:41.664Z,3.53
2022-08-28T20:02:44.911Z,3.30
2022-08-28T20:07:47.672Z,3.85
2022-08-28T20:12:50.387Z,3.63
2022-08-28T20:17:52.840Z,3.55
2022-08-28T20:22:55.306Z,3.50
2022-08-28T20:28:01.699Z,3.13
2022-08-28T20:33:04.463Z,3.72
2022-08-28T20:38:07.137Z,3.30
2022-08-28T20:43:09.586Z,4.00
2022-08-28T20:48:12.025Z,3.65
2022-08-28T20:53:14.453Z,3.58
2022-08-28T20:58:31.920Z,3.28
2022-08-28T21:03:34.362Z,3.55
2022-08-28T21:08:36.747Z,3.85
2022-08-28T21:13:39.273Z,3.63
2022-08-28T21:18:53.836Z,4.30
2022-08-28T21:24:07.503Z,3.00
2022-08-28T21:29:10.938Z,4.00
2022-08-28T21:34:14.124Z,3.53
2022-08-28T21:39:17.102Z,3.35
2022-08-28T21:44:19.567Z,3.45
2022-08-28T21:49:23.067Z,4.95
2022-08-28T21:54:25.517Z,3.47
2022-08-28T21:59:30.296Z,4.18
2022-08-28T22:04:40.492Z,3.88
2022-08-28T22:09:43.530Z,3.38
2022-08-28T22:14:46.166Z,3.47
2022-08-28T22:19:48.638Z,4.45
2022-08-28T22:24:51.580Z,4.88
2022-08-28T22:29:53.944Z,4.15
2022-08-28T22:34:56.847Z,3.50
2022-08-28T22:39:59.335Z,4.28
2022-08-28T22:45:02.031Z,3.05
2022-08-28T22:50:05.393Z,3.60
2022-08-28T22:55:12.272Z,4.00
2022-08-28T23:00:19.668Z,3.58
2022-08-28T23:05:23.739Z,3.85
2022-08-28T23:10:48.163Z,3.67
2022-08-28T23:15:49.642Z,3.80
2022-08-28T23:20:52.565Z,3.25
2022-08-28T23:25:55.045Z,3.00
2022-08-28T23:30:57.603Z,3.17
2022-08-28T23:36:00.134Z,4.00
2022-08-28T23:41:02.636Z,3.55
2022-08-28T23:46:05.887Z,3.70
2022-08-28T23:51:10.624Z,3.75
2022-08-28T23:56:14.186Z,3.30
